sensor_id;sensor_type;location;lat;lon;timestamp;pressure;altitude;pressure_sealevel;temperature;humidity
48089;BME280;33867;50.314;7.802;2022-07-29T00:04:04;100225.66;;;18.36;nan
48089;BME280;33867;50.314;7.802;2022-07-29T00:48:42;100221.00;;;18.58;nan
48089;BME280;33867;50.314;7.802;2022-07-29T01:53:29;100171.91;;;18.24;nan
48089;BME280;33867;50.314;7.802;2022-07-29T01:58:14;100161.97;;;18.16;nan
48089;BME280;33867;50.314;7.802;2022-07-29T03:31:39;100173.75;;;16.87;nan
48089;BME280;33867;50.314;7.802;2022-07-29T03:41:40;100163.44;;;16.67;nan
48089;BME280;33867;50.314;7.802;2022-07-29T03:59:34;100162.91;;;16.20;nan
48089;BME280;33867;50.314;7.802;2022-07-29T04:08:43;100171.81;;;16.14;nan
48089;BME280;33867;50.314;7.802;2022-07-29T05:08:45;100200.91;;;16.05;nan
48089;BME280;33867;50.314;7.802;2022-07-29T05:17:05;100204.50;;;16.20;nan
48089;BME280;33867;50.314;7.802;2022-07-29T06:57:50;100241.25;;;25.86;nan
48089;BME280;33867;50.314;7.802;2022-07-29T07:06:41;100240.00;;;24.13;nan
48089;BME280;33867;50.314;7.802;2022-07-29T07:10:57;100254.78;;;24.01;nan
48089;BME280;33867;50.314;7.802;2022-07-29T07:20:01;100241.94;;;25.13;nan
48089;BME280;33867;50.314;7.802;2022-07-29T07:23:22;100252.06;;;24.42;nan
48089;BME280;33867;50.314;7.802;2022-07-29T07:26:41;100244.78;;;24.06;nan
48089;BME280;33867;50.314;7.802;2022-07-29T07:30:02;100247.78;;;24.93;nan
48089;BME280;33867;50.314;7.802;2022-07-29T07:33:22;100245.25;;;25.27;nan
48089;BME280;33867;50.314;7.802;2022-07-29T07:37:00;100253.53;;;25.27;nan
48089;BME280;33867;50.314;7.802;2022-07-29T07:40:22;100242.75;;;25.25;nan
48089;BME280;33867;50.314;7.802;2022-07-29T07:43:42;100233.50;;;27.18;nan
48089;BME280;33867;50.314;7.802;2022-07-29T07:47:05;100232.38;;;28.70;nan
48089;BME280;33867;50.314;7.802;2022-07-29T07:50:25;100234.16;;;29.29;nan
48089;BME280;33867;50.314;7.802;2022-07-29T07:53:45;100228.53;;;29.76;nan
48089;BME280;33867;50.314;7.802;2022-07-29T07:57:08;100234.66;;;29.16;nan
48089;BME280;33867;50.314;7.802;2022-07-29T08:00:27;100233.22;;;28.34;nan
48089;BME280;33867;50.314;7.802;2022-07-29T08:07:47;100233.44;;;29.49;nan
48089;BME280;33867;50.314;7.802;2022-07-29T08:11:06;100233.03;;;30.03;nan
48089;BME280;33867;50.314;7.802;2022-07-29T08:14:51;100237.63;;;29.51;nan
48089;BME280;33867;50.314;7.802;2022-07-29T08:18:28;100233.13;;;27.96;nan
48089;BME280;33867;50.314;7.802;2022-07-29T08:25:42;100230.84;;;27.66;nan
48089;BME280;33867;50.314;7.802;2022-07-29T08:29:01;100229.34;;;28.35;nan
48089;BME280;33867;50.314;7.802;2022-07-29T08:32:25;100235.22;;;29.18;nan
48089;BME280;33867;50.314;7.802;2022-07-29T08:35:59;100239.19;;;30.15;nan
48089;BME280;33867;50.314;7.802;2022-07-29T08:39:18;100234.13;;;31.29;nan
48089;BME280;33867;50.314;7.802;2022-07-29T08:42:37;100230.66;;;32.07;nan
48089;BME280;33867;50.314;7.802;2022-07-29T08:46:22;100226.31;;;32.35;nan
48089;BME280;33867;50.314;7.802;2022-07-29T08:49:46;100220.97;;;33.25;nan
48089;BME280;33867;50.314;7.802;2022-07-29T09:07:55;100199.09;;;33.56;nan
48089;BME280;33867;50.314;7.802;2022-07-29T09:11:17;100195.94;;;34.84;nan
48089;BME280;33867;50.314;7.802;2022-07-29T09:14:36;100202.81;;;33.04;nan
48089;BME280;33867;50.314;7.802;2022-07-29T09:17:55;100197.25;;;32.46;nan
48089;BME280;33867;50.314;7.802;2022-07-29T09:21:17;100193.34;;;33.90;nan
48089;BME280;33867;50.314;7.802;2022-07-29T09:24:58;100186.84;;;35.34;nan
48089;BME280;33867;50.314;7.802;2022-07-29T09:28:23;100183.94;;;35.66;nan
48089;BME280;33867;50.314;7.802;2022-07-29T09:31:47;100187.34;;;36.13;nan
48089;BME280;33867;50.314;7.802;2022-07-29T09:35:33;100179.16;;;35.67;nan
48089;BME280;33867;50.314;7.802;2022-07-29T09:39:09;100172.09;;;36.28;nan
48089;BME280;33867;50.314;7.802;2022-07-29T09:42:41;100172.44;;;35.27;nan
48089;BME280;33867;50.314;7.802;2022-07-29T09:46:19;100173.91;;;35.10;nan
48089;BME280;33867;50.314;7.802;2022-07-29T09:49:59;100175.75;;;35.56;nan
48089;BME280;33867;50.314;7.802;2022-07-29T09:53:44;100182.19;;;35.15;nan
48089;BME280;33867;50.314;7.802;2022-07-29T09:57:08;100177.19;;;36.71;nan
48089;BME280;33867;50.314;7.802;2022-07-29T10:00:41;100170.47;;;37.20;nan
48089;BME280;33867;50.314;7.802;2022-07-29T10:04:41;100170.88;;;36.96;nan
48089;BME280;33867;50.314;7.802;2022-07-29T10:08:01;100162.59;;;36.91;nan
48089;BME280;33867;50.314;7.802;2022-07-29T10:11:28;100149.25;;;37.62;nan
48089;BME280;33867;50.314;7.802;2022-07-29T10:15:04;100155.91;;;38.27;nan
48089;BME280;33867;50.314;7.802;2022-07-29T10:19:01;100163.31;;;35.85;nan
48089;BME280;33867;50.314;7.802;2022-07-29T10:22:24;100152.31;;;36.55;nan
48089;BME280;33867;50.314;7.802;2022-07-29T10:25:49;100148.88;;;36.89;nan
48089;BME280;33867;50.314;7.802;2022-07-29T10:29:09;100143.78;;;37.49;nan
48089;BME280;33867;50.314;7.802;2022-07-29T10:32:31;100141.38;;;37.90;nan
48089;BME280;33867;50.314;7.802;2022-07-29T10:36:19;100144.03;;;37.21;nan
48089;BME280;33867;50.314;7.802;2022-07-29T10:43:43;100138.09;;;38.61;nan
48089;BME280;33867;50.314;7.802;2022-07-29T10:47:03;100141.31;;;38.89;nan
48089;BME280;33867;50.314;7.802;2022-07-29T10:50:23;100132.47;;;38.61;nan
48089;BME280;33867;50.314;7.802;2022-07-29T10:53:52;100125.84;;;37.10;nan
48089;BME280;33867;50.314;7.802;2022-07-29T11:00:39;100121.63;;;33.05;nan
48089;BME280;33867;50.314;7.802;2022-07-29T11:03:59;100124.66;;;33.52;nan
48089;BME280;33867;50.314;7.802;2022-07-29T11:07:18;100114.50;;;34.58;nan
48089;BME280;33867;50.314;7.802;2022-07-29T11:10:40;100123.09;;;34.76;nan
48089;BME280;33867;50.314;7.802;2022-07-29T11:14:02;100116.84;;;36.28;nan
48089;BME280;33867;50.314;7.802;2022-07-29T11:17:24;100113.06;;;36.86;nan
48089;BME280;33867;50.314;7.802;2022-07-29T11:20:48;100114.09;;;37.91;nan
48089;BME280;33867;50.314;7.802;2022-07-29T11:24:26;100117.72;;;37.91;nan
48089;BME280;33867;50.314;7.802;2022-07-29T11:27:51;100108.41;;;37.39;nan
48089;BME280;33867;50.314;7.802;2022-07-29T11:31:11;100119.28;;;35.40;nan
48089;BME280;33867;50.314;7.802;2022-07-29T11:34:32;100104.94;;;35.78;nan
48089;BME280;33867;50.314;7.802;2022-07-29T11:41:44;100102.06;;;34.78;nan
48089;BME280;33867;50.314;7.802;2022-07-29T11:49:32;100104.47;;;37.66;nan
48089;BME280;33867;50.314;7.802;2022-07-29T11:52:52;100095.06;;;38.60;nan
48089;BME280;33867;50.314;7.802;2022-07-29T11:56:12;100098.84;;;37.49;nan
48089;BME280;33867;50.314;7.802;2022-07-29T11:59:41;100084.69;;;36.57;nan
48089;BME280;33867;50.314;7.802;2022-07-29T12:03:03;100093.59;;;34.70;nan
48089;BME280;33867;50.314;7.802;2022-07-29T12:06:23;100101.50;;;34.03;nan
48089;BME280;33867;50.314;7.802;2022-07-29T12:09:52;100102.22;;;33.38;nan
48089;BME280;33867;50.314;7.802;2022-07-29T12:13:20;100106.03;;;32.75;nan
48089;BME280;33867;50.314;7.802;2022-07-29T12:16:40;100099.78;;;33.31;nan
48089;BME280;33867;50.314;7.802;2022-07-29T12:20:04;100088.66;;;32.36;nan
48089;BME280;33867;50.314;7.802;2022-07-29T12:23:24;100088.53;;;33.18;nan
48089;BME280;33867;50.314;7.802;2022-07-29T12:26:57;100095.44;;;33.63;nan
48089;BME280;33867;50.314;7.802;2022-07-29T12:30:43;100090.72;;;33.21;nan
48089;BME280;33867;50.314;7.802;2022-07-29T12:34:03;100081.28;;;33.73;nan
48089;BME280;33867;50.314;7.802;2022-07-29T12:37:29;100089.63;;;32.98;nan
48089;BME280;33867;50.314;7.802;2022-07-29T12:44:49;100076.38;;;34.03;nan
48089;BME280;33867;50.314;7.802;2022-07-29T13:05:11;100060.94;;;31.52;nan
48089;BME280;33867;50.314;7.802;2022-07-29T13:30:11;100068.03;;;33.65;nan
48089;BME280;33867;50.314;7.802;2022-07-29T13:33:34;100059.88;;;33.50;nan
48089;BME280;33867;50.314;7.802;2022-07-29T14:07:25;100062.34;;;33.13;nan
48089;BME280;33867;50.314;7.802;2022-07-29T14:11:38;100069.56;;;33.14;nan
48089;BME280;33867;50.314;7.802;2022-07-29T14:16:20;100071.03;;;33.12;nan
48089;BME280;33867;50.314;7.802;2022-07-29T14:20:21;100070.84;;;32.84;nan
48089;BME280;33867;50.314;7.802;2022-07-29T14:24:48;100074.09;;;32.92;nan
48089;BME280;33867;50.314;7.802;2022-07-29T14:28:25;100079.94;;;32.42;nan
48089;BME280;33867;50.314;7.802;2022-07-29T14:47:13;100086.44;;;30.35;nan
48089;BME280;33867;50.314;7.802;2022-07-29T14:55:56;100090.31;;;29.93;nan
48089;BME280;33867;50.314;7.802;2022-07-29T14:59:39;100078.59;;;30.68;nan
48089;BME280;33867;50.314;7.802;2022-07-29T15:08:16;100070.88;;;30.29;nan
48089;BME280;33867;50.314;7.802;2022-07-29T15:41:32;100065.63;;;29.51;nan
48089;BME280;33867;50.314;7.802;2022-07-29T15:44:55;100059.25;;;29.61;nan
48089;BME280;33867;50.314;7.802;2022-07-29T21:50:13;100404.13;;;20.56;nan
48089;BME280;33867;50.314;7.802;2022-07-29T22:05:01;100426.94;;;21.03;nan
48089;BME280;33867;50.314;7.802;2022-07-29T22:59:59;100434.97;;;19.82;nan
48089;BME280;33867;50.314;7.802;2022-07-29T23:09:45;100447.72;;;19.69;nan
48089;BME280;33867;50.314;7.802;2022-07-29T23:14:50;100449.00;;;19.73;nan
48089;BME280;33867;50.314;7.802;2022-07-29T23:28:36;100454.06;;;19.48;nan
48089;BME280;33867;50.314;7.802;2022-07-29T23:32:43;100448.53;;;19.41;nan
48089;BME280;33867;50.314;7.802;2022-07-29T23:37:14;100451.25;;;19.41;nan
48089;BME280;33867;50.314;7.802;2022-07-29T23:40:59;100454.19;;;19.40;nan
48089;BME280;33867;50.314;7.802;2022-07-29T23:44:47;100452.31;;;19.40;nan
48089;BME280;33867;50.314;7.802;2022-07-29T23:48:11;100455.47;;;19.16;nan
48089;BME280;33867;50.314;7.802;2022-07-29T23:56:21;100448.50;;;19.07;nan
